Reuben Lasker — WTEG — position and weather

sailwx.info

Track history (hours):
 
Tides and Currents Weather Stations Pressure Air Temp Water Temp Dewpoint Dewpoint Depression Visibility Wind Speed Wind Dir Waves Ship Positions

Oceanographic research ship Reuben Lasker (United States)

Last reported at 2017-Apr-23 15:30 UTC. Time now 2017-Apr-23 15:53 UTC.
Position N 37°47' W 122°23'.

Length 63 m; draft 8 m.

Type: Other ship. MMSI: 369970573.

Date/timePositionNaut miles runAvg speedWind from/ knotsBaromVisibWave heightAir tempDewpointWater temp
2017-Apr-23 15:30N 37°47' W 122°23'0 0.0
2017-Apr-23 15:00N 37°47' W 122°23'0 0.0
2017-Apr-23 14:00N 37°47' W 122°23'0 0.0
2017-Apr-23 13:30N 37°47' W 122°23'0 0.0
2017-Apr-23 13:00N 37°47' W 122°23'0 0.0
2017-Apr-23 12:30N 37°47' W 122°23'0 0.0
2017-Apr-23 12:00N 37°47' W 122°23'0 0.0
2017-Apr-23 11:30N 37°47' W 122°23'0 0.0
2017-Apr-23 11:00N 37°47' W 122°23'0 0.0
2017-Apr-23 10:30N 37°47' W 122°23'0 0.0
2017-Apr-23 10:00N 37°47' W 122°23'0 0.0
2017-Apr-23 09:30N 37°47' W 122°23'0 0.0
2017-Apr-23 09:00N 37°47' W 122°23'0 0.0
2017-Apr-23 08:30N 37°47' W 122°23'0 0.0
2017-Apr-23 08:00N 37°47' W 122°23'0 0.0
2017-Apr-23 07:30N 37°47' W 122°23'0 0.0
2017-Apr-23 07:00N 37°47' W 122°23'0 0.0
2017-Apr-23 06:30N 37°47' W 122°23'0 0.0
2017-Apr-23 06:00N 37°47' W 122°23'0 0.0
2017-Apr-23 05:30N 37°47' W 122°23'0 0.0
2017-Apr-23 05:00N 37°47' W 122°23'0 0.0
2017-Apr-23 04:30N 37°47' W 122°23'0 0.0
2017-Apr-23 04:00N 37°47' W 122°23'0 0.0
2017-Apr-23 03:27N 37°47' W 122°23'0 0.0
2017-Apr-23 03:00N 37°47' W 122°23'0 0.0
2017-Apr-23 02:30N 37°47' W 122°23'0 0.0
2017-Apr-23 02:00N 37°47' W 122°23'0 0.0
2017-Apr-23 01:30N 37°47' W 122°23'0 0.0
2017-Apr-23 01:00N 37°47' W 122°23'0 0.0
2017-Apr-23 00:30N 37°47' W 122°23'0 0.0
2017-Apr-23 00:00N 37°47' W 122°23'0 0.0
2017-Apr-22 23:30N 37°47' W 122°23'0 0.0
2017-Apr-22 23:00N 37°47' W 122°23'0 0.0
2017-Apr-22 22:30N 37°47' W 122°23'0 0.0
2017-Apr-22 22:00N 37°47' W 122°23'0 0.0
2017-Apr-22 21:30N 37°47' W 122°23'0 0.0
2017-Apr-22 21:00N 37°47' W 122°23'0 0.0
2017-Apr-22 20:30N 37°47' W 122°23'0 0.0
2017-Apr-22 20:00N 37°47' W 122°23'0 0.0
2017-Apr-22 19:30N 37°47' W 122°23'0 0.0
2017-Apr-22 19:00N 37°47' W 122°23'0 0.0
2017-Apr-22 18:30N 37°47' W 122°23'0 0.0
2017-Apr-22 18:00N 37°47' W 122°23'0 0.1
2017-Apr-22 17:30N 37°47' W 122°23'2 3.0
2017-Apr-22 17:00N 37°49' W 122°24'1 3.2
2017-Apr-22 16:49N 37°48' W 122°24'414.3 260 / 71017.3 15.7 14.7
2017-Apr-22 16:30N 37°49' W 122°29'5 9.4
2017-Apr-22 16:00N 37°47' W 122°35'5 9.3
2017-Apr-22 15:30N 37°45' W 122°40'1 1.7
2017-Apr-22 15:01N 37°45' W 122°41'2 4.8
2017-Apr-22 14:30N 37°45' W 122°44'4 6.0
2017-Apr-22 13:49N 37°42' W 122°48'723.9 190 / 31016.8 13.4 13.7
2017-Apr-22 13:30N 37°49' W 122°52'3 6.3
2017-Apr-22 13:00N 37°50' W 122°55'211.8
2017-Apr-22 12:49N 37°48' W 122°54'517.0 240 / 41016.8 13.2 13.7
2017-Apr-22 12:30N 37°52' W 122°59'4 7.1
2017-Apr-22 12:00N 37°53' W 123°03'526.4
2017-Apr-22 11:49N 37°48' W 123°00'826.6 210 / 41016.7 13.3 14.0
2017-Apr-22 11:30N 37°52' W 123°09'5 8.9
2017-Apr-22 11:00N 37°50' W 123°14'315.1
2017-Apr-22 10:49N 37°48' W 123°12'619.3 190 / 51016.2 13.3 13.7
2017-Apr-22 10:30N 37°49' W 123°19'4 8.7
2017-Apr-22 10:00N 37°48' W 123°25'632.2
2017-Apr-22 09:50N 37°42' W 123°24'619.9 220 / 41016.6 13.7 13.3
2017-Apr-22 09:30N 37°46' W 123°30'4 8.3
2017-Apr-22 09:00N 37°45' W 123°35'318.8
2017-Apr-22 08:50N 37°42' W 123°36'310.4 230 / 41016.3 13.8 14.1
2017-Apr-22 08:30N 37°45' W 123°37'2 3.4
2017-Apr-22 08:00N 37°46' W 123°39'525.1
2017-Apr-22 07:50N 37°42' W 123°36'720.4 280 / 51016.8 13.7 13.7
2017-Apr-22 07:30N 37°47' W 123°41'1 1.1
2017-Apr-22 07:00N 37°47' W 123°42'529.3
2017-Apr-22 06:50N 37°42' W 123°42'517.1 310 / 41016.4 13.7 13.8
2017-Apr-22 06:30N 37°47' W 123°42'1 1.4
2017-Apr-22 06:00N 37°48' W 123°41'420.6
2017-Apr-22 05:50N 37°48' W 123°36'2 6.9 310 / 101017.0 13.8 13.7
2017-Apr-22 05:30N 37°49' W 123°39'4 8.7
2017-Apr-22 05:00N 37°51' W 123°34'422.5
2017-Apr-22 04:50N 37°48' W 123°30'515.1 330 / 151016.6 13.7 13.6
2017-Apr-22 04:30N 37°53' W 123°29'4 8.8
2017-Apr-22 04:00N 37°55' W 123°24'5348.6
2017-Apr-22 04:00N 37°54' W 123°18'0 0.0 340 / 131015.110.8 13.710.713.5
2017-Apr-22 03:50N 37°54' W 123°18'3 9.4 340 / 151016.2 13.7 13.4
2017-Apr-22 03:30N 37°57' W 123°19'4 8.9
2017-Apr-22 03:00N 37°59' W 123°14'528.9
2017-Apr-22 02:50N 37°54' W 123°12'723.3 340 / 141016.0 13.7 13.1
2017-Apr-22 02:30N 38°01' W 123°09'4 8.7
2017-Apr-22 02:00N 38°03' W 123°04'526.1
2017-Apr-22 01:50N 38°00' W 123°00'413.6 330 / 111016.5 14.2 14.3
2017-Apr-22 01:30N 38°04' W 123°02'1 2.3
2017-Apr-22 01:00N 38°04' W 123°01'424.4
2017-Apr-22 00:50N 38°00' W 123°00'413.3 250 / 61017.2 13.9 14.3
2017-Apr-22 00:30N 38°04' W 123°02'4 7.4
2017-Apr-22 00:00N 38°02' W 123°06'4 8.4
2017-Apr-21 23:30N 37°60' W 123°11'4 8.2
2017-Apr-21 23:00N 37°58' W 123°15'525.5
2017-Apr-21 22:50N 37°54' W 123°12'620.1 260 / 61018.4 13.9 13.7
2017-Apr-21 22:30N 37°56' W 123°20'4 8.4
2017-Apr-21 22:00N 37°54' W 123°24'631.4
2017-Apr-21 21:50N 37°48' W 123°24'515.8 340 / 81019.1 14.3 13.7
2017-Apr-21 21:30N 37°52' W 123°27'2 4.2
2017-Apr-21 21:00N 37°51' W 123°30'318.4
2017-Apr-21 20:50N 37°48' W 123°30'3 9.9 270 / 61020.1 13.8 13.6
2017-Apr-21 20:30N 37°49' W 123°34'3 6.6
2017-Apr-21 20:00N 37°48' W 123°37'632.7
2017-Apr-21 19:50N 37°42' W 123°36'617.4 330 / 61020.7 14.2 14.3
2017-Apr-21 19:30N 37°47' W 123°40'4 8.8
2017-Apr-21 19:00N 37°44' W 123°45'318.4
2017-Apr-21 18:50N 37°42' W 123°42'412.9 250 / 61021.3 13.8 14.3
2017-Apr-21 18:30N 37°44' W 123°47'0 1.0
2017-Apr-21 18:00N 37°44' W 123°46'212.9
2017-Apr-21 17:50N 37°42' W 123°48'310.0 260 / 81021.5 13.6 14.0
2017-Apr-21 17:31N 37°41' W 123°52'5 9.5
2017-Apr-21 17:01N 37°39' W 123°57'420.0
2017-Apr-21 16:50N 37°36' W 123°54'722.1 250 / 91021.5 13.7 13.8
2017-Apr-21 16:31N 37°36' W 124°03'510.6
2017-Apr-21 16:00N 37°33' W 124°09'422.4
2017-Apr-21 15:50N 37°30' W 124°06'720.9 310 / 61021.8 13.8 13.7
2017-Apr-21 15:30N 37°31' W 124°14'4 8.9
2017-Apr-21 15:00N 37°29' W 124°19'526.9
2017-Apr-21 14:50N 37°24' W 124°18'613.3 350 / 61022.2 14.0 14.1
2017-Apr-21 14:23N 37°26' W 124°25'4 7.9
2017-Apr-21 13:50N 37°24' W 124°30'1 1.7 260 / 41022.6 13.6 14.2
2017-Apr-21 13:30N 37°24' W 124°30'1 1.6
2017-Apr-21 13:00N 37°23' W 124°29'741.3
2017-Apr-21 12:51N 37°18' W 124°24'3 7.0 020 / 171022.5 13.6 14.1
2017-Apr-21 12:28N 37°20' W 124°26'3 4.1
2017-Apr-21 11:51N 37°18' W 124°24'6 6.0 020 / 171023.4 22.7 14.2
2017-Apr-21 10:51N 37°24' W 124°24'310.3 020 / 121024.3 17.1 14.2
2017-Apr-21 10:31N 37°25' W 124°28'0 6.7
2017-Apr-21 10:30N 37°25' W 124°28'811.5
2017-Apr-21 09:51N 37°18' W 124°24'3 7.6 020 / 201024.2 13.8 14.3
2017-Apr-21 09:28N 37°15' W 124°23'5 8.6
2017-Apr-21 08:51N 37°12' W 124°18'5 4.8 020 / 151025.8 14.0 14.6
2017-Apr-21 07:51N 37°12' W 124°24'0 0.0 010 / 131026.2 16.8 14.6
2017-Apr-21 06:51N 37°12' W 124°24'339.7 010 / 201026.1 14.1 14.5
2017-Apr-21 06:47N 37°14' W 124°26'3 9.9
2017-Apr-21 06:31N 37°11' W 124°26'5 9.7
2017-Apr-21 05:57N 37°06' W 124°24'656.5
2017-Apr-21 05:51N 37°00' W 124°24'613.4 340 / 91026.8 14.4 15.3
2017-Apr-21 05:25N 37°06' W 124°24'0 1.2
2017-Apr-21 05:01N 37°06' W 124°23'0 2.9
2017-Apr-21 04:51N 37°06' W 124°24'1 3.5 020 / 151026.9 14.4 15.3
2017-Apr-21 04:31N 37°07' W 124°25'2 4.8
2017-Apr-21 04:01N 37°08' W 124°27'421.3
2017-Apr-21 03:51N 37°06' W 124°24'618.5 350 / 101026.5 15.5 15.4
2017-Apr-21 03:31N 37°10' W 124°30'1 1.3
2017-Apr-21 03:01N 37°10' W 124°30'740.1
2017-Apr-21 02:51N 37°06' W 124°24'3 9.4 010 / 181025.9 14.4 15.4
2017-Apr-21 02:29N 37°09' W 124°26'3 7.1
2017-Apr-21 02:00N 37°08' W 124°22'422.5
2017-Apr-21 01:51N 37°06' W 124°18'5 4.8 010 / 181026.0 14.5 14.9
2017-Apr-21 00:51N 37°06' W 124°12'16 7.8 360 / 191026.8 15.1 15.1
2017-Apr-20 22:51N 37°12' W 123°54'1111.3 350 / 171027.2 14.7 13.9
2017-Apr-20 21:51N 37°18' W 123°42'912.5 350 / 181027.6 14.5 13.9
2017-Apr-20 21:08N 37°25' W 123°36'516.8
2017-Apr-20 20:51N 37°24' W 123°30'510.7 010 / 161026.9 13.8 13.7
2017-Apr-20 20:22N 37°25' W 123°36'5 9.9
2017-Apr-20 19:51N 37°24' W 123°30'8 7.7 360 / 121027.6 14.6 13.8
2017-Apr-20 18:51N 37°30' W 123°24'4 9.2 350 / 161027.5 14.5 13.5
2017-Apr-20 18:23N 37°33' W 123°20'718.1
2017-Apr-20 18:00N 37°36' W 123°12'3403.1 350 / 131026.310.8 13.910.912.8
2017-Apr-20 17:59N 37°35' W 123°15'638.6
2017-Apr-20 17:51N 37°30' W 123°12'822.6 350 / 161027.4 14.1 13.1
2017-Apr-20 17:30N 37°37' W 123°10'510.7
2017-Apr-20 17:00N 37°40' W 123°04'529.8
2017-Apr-20 16:51N 37°36' W 123°00'514.0 310 / 111027.1 13.9 13.2
2017-Apr-20 16:30N 37°40' W 123°03'1 1.8
2017-Apr-20 16:00N 37°40' W 123°02'426.9
2017-Apr-20 15:51N 37°36' W 123°00'720.0 360 / 131026.3 13.7 13.3
2017-Apr-20 15:30N 37°42' W 122°58'1 2.1
2017-Apr-20 15:00N 37°43' W 122°57'317.3
2017-Apr-20 14:52N 37°42' W 122°54'4 4.5 360 / 101026.0 14.1 13.1
2017-Apr-20 14:00N 37°45' W 122°52'531.3
2017-Apr-20 13:52N 37°42' W 122°48'513.9 360 / 131025.3 13.7 13.9
2017-Apr-20 13:30N 37°46' W 122°51'1 2.5
2017-Apr-20 13:00N 37°45' W 122°52'429.0
2017-Apr-20 12:52N 37°42' W 122°48'617.1 340 / 81024.7 13.8 13.7
2017-Apr-20 12:30N 37°41' W 122°56'6 9.9
2017-Apr-20 11:56N 37°39' W 123°02'453.7
2017-Apr-20 11:52N 37°36' W 123°00'1212.4 290 / 71025.3 13.8 13.1
2017-Apr-20 10:54N 37°40' W 123°14'4123.5
2017-Apr-20 10:52N 37°36' W 123°12'411.9 340 / 111025.0 14.1 12.9
2017-Apr-20 10:30N 37°40' W 123°13'2 3.1
2017-Apr-20 10:00N 37°40' W 123°11'639.5
2017-Apr-20 09:52N 37°36' W 123°06'513.6 310 / 81024.6 14.0 13.1
2017-Apr-20 09:30N 37°40' W 123°09'2 3.3
2017-Apr-20 09:00N 37°41' W 123°07'528.3
2017-Apr-20 08:51N 37°36' W 123°06'2 6.0 230 / 31024.4 13.9 13.2
2017-Apr-20 08:30N 37°37' W 123°04'510.2
2017-Apr-20 08:00N 37°33' W 123°01'316.7
2017-Apr-20 07:51N 37°30' W 123°00'2 7.0 120 / 21024.5 14.0 13.4
2017-Apr-20 07:30N 37°28' W 122°58'2 4.9
2017-Apr-20 07:00N 37°27' W 122°56'317.7
2017-Apr-20 06:51N 37°24' W 122°54'2 6.9 310 / 51024.5 13.8 13.5
2017-Apr-20 06:30N 37°26' W 122°55'2 3.7
2017-Apr-20 06:00N 37°26' W 122°52'423.8
2017-Apr-20 05:51N 37°24' W 122°48'3 7.6 190 / 41024.3 16.9 13.6
2017-Apr-20 05:30N 37°26' W 122°50'710.4
2017-Apr-20 04:51N 37°24' W 122°42'129.3 170 / 61024.3 14.7 13.7
2017-Apr-20 04:48N 37°25' W 122°43'7 8.1
2017-Apr-20 03:54N 37°31' W 122°36'112.0
2017-Apr-20 03:51N 37°30' W 122°36'1 4.4 230 / 101023.9 14.5 13.6
2017-Apr-20 03:30N 37°31' W 122°35'1 0.9
2017-Apr-20 02:53N 37°31' W 122°34'476.6
2017-Apr-20 02:51N 37°30' W 122°30'412.2 160 / 61023.5 14.4 13.8
2017-Apr-20 02:30N 37°32' W 122°34'2 3.8
2017-Apr-20 01:52N 37°30' W 122°36'016.6
2017-Apr-20 01:51N 37°30' W 122°36'3 8.8 190 / 101023.8 15.1 13.6
2017-Apr-20 01:28N 37°28' W 122°40'4 9.5
2017-Apr-20 01:00N 37°26' W 122°44'317.9
2017-Apr-20 00:51N 37°24' W 122°42'617.4 180 / 111024.2 15.2 13.7
2017-Apr-20 00:30N 37°24' W 122°49'5 9.5
2017-Apr-19 23:58N 37°21' W 122°55'5 9.9
2017-Apr-19 23:29N 37°19' W 123°00'5 9.7
2017-Apr-19 23:00N 37°16' W 123°05'528.7
2017-Apr-19 22:51N 37°12' W 123°06'5 9.5 190 / 121024.2 15.4 14.0
2017-Apr-19 22:17N 37°13' W 123°13'3 9.4
2017-Apr-19 21:57N 37°12' W 123°16'659.3
2017-Apr-19 21:51N 37°06' W 123°12'615.0 180 / 131024.2 15.3 14.4
2017-Apr-19 21:25N 37°11' W 123°16'1 2.5
2017-Apr-19 20:57N 37°11' W 123°17'765.4
2017-Apr-19 20:51N 37°06' W 123°12'721.1 180 / 101024.2 14.7 14.3
2017-Apr-19 20:30N 37°10' W 123°20'5 7.6
2017-Apr-19 19:51N 37°06' W 123°24'329.4 170 / 131024.2 15.6 14.5
2017-Apr-19 19:44N 37°06' W 123°28'2 9.4
2017-Apr-19 19:29N 37°05' W 123°30'510.2
2017-Apr-19 18:58N 37°02' W 123°36'217.7
2017-Apr-19 18:51N 37°00' W 123°36'8 7.7 180 / 121024.3 15.7 14.0
2017-Apr-19 17:51N 36°54' W 123°30'611.9 120 / 41024.1 14.7 13.8
2017-Apr-19 17:20N 37°00' W 123°31'2 6.4
2017-Apr-19 16:59N 37°00' W 123°33'319.5
2017-Apr-19 16:51N 37°00' W 123°30'616.4 210 / 91023.8 16.2 13.7
2017-Apr-19 16:28N 37°00' W 123°38'714.8
2017-Apr-19 16:00N 36°54' W 123°42'5141.8 210 / 91022.310.8 17.412.713.8
2017-Apr-19 15:57N 36°59' W 123°42'547.7
2017-Apr-19 15:51N 36°54' W 123°42'513.6 210 / 91023.4 16.1 14.1
2017-Apr-19 15:28N 36°57' W 123°48'4 9.7
2017-Apr-19 15:00N 36°55' W 123°52'321.9
2017-Apr-19 14:51N 36°54' W 123°48'7 8.9 210 / 111022.6 15.3 14.8
2017-Apr-19 14:05N 36°53' W 123°56'520.6
2017-Apr-19 13:51N 36°48' W 123°54'511.9 200 / 121022.2 15.2 14.9
2017-Apr-19 13:25N 36°50' W 123°60'0 0.9
2017-Apr-19 13:00N 36°51' W 123°59'531.9
2017-Apr-19 12:51N 36°48' W 123°54'412.4 220 / 91021.9 15.1 15.0
2017-Apr-19 12:30N 36°51' W 123°58'5 9.0
2017-Apr-19 12:00N 36°50' W 123°52'426.4
2017-Apr-19 11:51N 36°48' W 123°48'2 7.2 220 / 41022.0 14.8 14.3
2017-Apr-19 11:30N 36°50' W 123°47'2 4.5
2017-Apr-19 11:00N 36°50' W 123°44'319.4
2017-Apr-19 10:52N 36°48' W 123°42'2 5.9 180 / 31022.3 14.7 14.1
2017-Apr-19 10:30N 36°50' W 123°40'6 9.9
2017-Apr-19 09:53N 36°49' W 123°33'3146.6
2017-Apr-19 09:52N 36°48' W 123°30'4 6.2 250 / 31022.5 14.5 14.4
2017-Apr-19 09:16N 36°49' W 123°25'3 9.9
2017-Apr-19 09:00N 36°49' W 123°22'423.6
2017-Apr-19 08:52N 36°48' W 123°18'1 2.9 290 / 51022.7 14.3 13.9
2017-Apr-19 08:30N 36°48' W 123°17'1 2.6
2017-Apr-19 07:56N 36°48' W 123°15'230.9
2017-Apr-19 07:52N 36°48' W 123°12'410.8 280 / 71023.1 15.8 13.9
2017-Apr-19 07:30N 36°47' W 123°17'2 4.0
2017-Apr-19 07:00N 36°47' W 123°19'533.9
2017-Apr-19 06:52N 36°42' W 123°18'515.4 250 / 51023.0 14.4 14.1
2017-Apr-19 06:30N 36°46' W 123°22'4 8.7
2017-Apr-19 06:00N 36°45' W 123°28'429.8
2017-Apr-19 05:52N 36°42' W 123°24'616.7 210 / 51023.1 14.7 14.4
2017-Apr-19 05:30N 36°42' W 123°31'611.0
2017-Apr-19 05:00N 36°38' W 123°37'31868.4
2017-Apr-19 05:00N 36°36' W 123°36'0 0.0 180 / 21021.610.8 14.911.513.4
2017-Apr-19 04:52N 36°36' W 123°36'1111.4 170 / 31022.7 15.1 14.5
2017-Apr-19 03:52N 36°30' W 123°48'0 0.0 230 / 41022.1 15.6 15.5
2017-Apr-19 02:52N 36°30' W 123°48'5 4.8 290 / 71021.6 15.5 15.2
2017-Apr-19 01:52N 36°30' W 123°42'8 7.7 310 / 101021.5 15.5 15.2
2017-Apr-19 00:52N 36°36' W 123°36'2311.3 340 / 81020.8 15.4 14.8
2017-Apr-18 22:52N 36°48' W 123°12'3 5.7 320 / 111020.7 15.3 14.5
2017-Apr-18 22:18N 36°51' W 123°10'510.6
2017-Apr-18 21:52N 36°48' W 123°06'0 0.0 300 / 71020.6 15.3 13.4
2017-Apr-18 20:52N 36°48' W 123°06'8 7.7 300 / 51020.1 15.9 13.9
2017-Apr-18 19:52N 36°54' W 123°00'10 9.6 340 / 51019.9 14.1 13.7
2017-Apr-18 18:52N 36°54' W 122°48'1111.3 310 / 41020.4 13.3 13.2
2017-Apr-18 17:52N 37°00' W 122°36'1011.2 320 / 71020.4 13.0 12.7
2017-Apr-18 17:00N 37°09' W 122°32'323.8
2017-Apr-18 16:52N 37°06' W 122°30'615.4 340 / 31019.9 12.7 12.6
2017-Apr-18 16:30N 37°11' W 122°27'6 8.9
2017-Apr-18 15:52N 37°06' W 122°24'8 7.7 010 / 31019.5 12.7 12.5
2017-Apr-18 14:52N 37°00' W 122°18'0 0.0 010 / 71019.1 12.5 12.2
2017-Apr-18 13:52N 37°00' W 122°18'363.1 080 / 21018.3 12.6 12.6
2017-Apr-18 13:49N 37°02' W 122°21'3 3.2
2017-Apr-18 12:52N 37°00' W 122°18'416.2 110 / 11018.0 12.9 12.8
2017-Apr-18 12:38N 36°60' W 122°23'7 8.7
2017-Apr-18 11:52N 36°54' W 122°18'6 6.0 110 / 51017.4 12.9 12.8
2017-Apr-18 10:52N 36°48' W 122°18'5 4.8 100 / 31017.5 13.3 13.0
2017-Apr-18 09:52N 36°48' W 122°12'5 7.7 010 / 41017.7 12.8 12.8
2017-Apr-18 09:09N 36°53' W 122°12'1 3.3
2017-Apr-18 08:58N 36°53' W 122°12'768.8
2017-Apr-18 08:52N 36°48' W 122°06'819.6 280 / 41018.2 12.8 12.5
2017-Apr-18 08:28N 36°51' W 122°15'4 6.2
2017-Apr-18 07:52N 36°48' W 122°12'5 4.8 020 / 681018.5 12.8 12.8
2017-Apr-18 06:52N 36°48' W 122°06'2 4.0 350 / 91018.9 12.8 12.7
2017-Apr-18 06:23N 36°50' W 122°06'410.3
2017-Apr-18 06:00N 36°47' W 122°04'637.9
2017-Apr-18 05:52N 36°42' W 122°00'5 5.6 330 / 91018.8 13.0 12.7
2017-Apr-18 05:00N 36°46' W 122°03'535.8
2017-Apr-18 04:52N 36°42' W 122°00'511.8 320 / 71018.6 13.0 12.6
2017-Apr-18 04:28N 36°46' W 122°02'5 7.7
2017-Apr-18 03:52N 36°42' W 122°00'8 7.8 340 / 51017.9 12.8 12.6
2017-Apr-18 02:53N 36°48' W 121°54'527.2 260 / 41017.5 12.9 12.8
2017-Apr-18 02:43N 36°50' W 121°59'1 4.0
2017-Apr-18 02:29N 36°51' W 121°60'3 5.9
2017-Apr-18 02:00N 36°53' W 122°03'539.1
2017-Apr-18 01:53N 36°48' W 122°00'5 4.8 270 / 71017.3 13.2 12.8
2017-Apr-18 00:53N 36°48' W 121°54'0 0.0 360 / 31017.5 12.8 13.0
2017-Apr-17 22:53N 36°48' W 121°54'313.0 300 / 31018.0 13.3 13.0
2017-Apr-17 22:37N 36°50' W 121°57'1 8.3
2017-Apr-17 22:29N 36°49' W 121°59'1 2.0
2017-Apr-17 22:00N 36°49' W 121°60'1 7.1
2017-Apr-17 21:53N 36°48' W 122°00'514.4 270 / 81018.0 13.3 12.6
2017-Apr-17 21:30N 36°52' W 122°04'5 9.5
2017-Apr-17 21:00N 36°55' W 122°09'219.2
2017-Apr-17 20:53N 36°54' W 122°06'4 9.5 200 / 21017.8 12.9 12.9
2017-Apr-17 20:30N 36°57' W 122°09'3 6.4
2017-Apr-17 20:00N 36°55' W 122°12'1 8.9
2017-Apr-17 19:53N 36°54' W 122°12'513.0 120 / 91016.8 12.9 12.7
2017-Apr-17 19:30N 36°53' W 122°18'5 9.8
2017-Apr-17 19:00N 36°50' W 122°23'216.8
2017-Apr-17 18:53N 36°48' W 122°24'3 9.3 240 / 21017.9 13.3 13.4
2017-Apr-17 18:30N 36°47' W 122°28'510.0
2017-Apr-17 18:00N 36°45' W 122°34'432.0
2017-Apr-17 17:53N 36°42' W 122°30'720.3 230 / 31017.8 13.5 12.8
2017-Apr-17 17:30N 36°42' W 122°39'5 9.2
2017-Apr-17 17:00N 36°40' W 122°44'433.4
2017-Apr-17 16:53N 36°36' W 122°42'617.0 220 / 21017.3 13.1 13.2
2017-Apr-17 16:30N 36°38' W 122°50'3 7.0
2017-Apr-17 16:00N 36°35' W 122°53'749.6
2017-Apr-17 15:53N 36°30' W 122°48'718.0 060 / 11016.9 13.0 13.5
2017-Apr-17 15:30N 36°36' W 122°53'1 2.9
2017-Apr-17 15:00N 36°35' W 122°54'5419.2
2017-Apr-17 15:00N 36°30' W 122°54'0 0.0 060 / 21015.8 0.5 13.911.113.2
2017-Apr-17 14:53N 36°30' W 122°54'514.5 080 / 31016.5 12.4 13.2
2017-Apr-17 14:30N 36°33' W 122°60'1015.8
2017-Apr-17 13:53N 36°24' W 123°06'513.3 150 / 31016.1 13.0 13.2
2017-Apr-17 13:30N 36°28' W 123°10'1 2.2
2017-Apr-17 13:00N 36°27' W 123°12'323.1
2017-Apr-17 12:53N 36°24' W 123°12'3 6.9 150 / 11015.8 13.4 13.4
2017-Apr-17 12:30N 36°27' W 123°12'3 4.1
2017-Apr-17 11:53N 36°24' W 123°12'8 7.7 280 / 21015.4 13.5 13.3
2017-Apr-17 10:53N 36°18' W 123°18'6 6.0 160 / 11015.6 13.7 13.2
2017-Apr-17 09:53N 36°24' W 123°18'5 4.8 320 / 261015.3 13.5 13.3
2017-Apr-17 08:53N 36°24' W 123°12'752.3 310 / 71015.3 13.4 13.5
2017-Apr-17 08:44N 36°30' W 123°17'3 8.2
2017-Apr-17 08:24N 36°32' W 123°16'1 2.9
2017-Apr-17 08:00N 36°33' W 123°14'324.5
2017-Apr-17 07:53N 36°30' W 123°12'2 6.3 300 / 21015.7 12.7 13.4
2017-Apr-17 07:30N 36°32' W 123°14'2 3.1
2017-Apr-17 07:00N 36°30' W 123°13'1 9.3
2017-Apr-17 06:53N 36°30' W 123°12'1 2.5 360 / 31015.4 12.8 13.3
2017-Apr-17 06:30N 36°29' W 123°12'5 8.2
2017-Apr-17 05:53N 36°30' W 123°06'6 6.0 350 / 61015.5 13.4 13.4
2017-Apr-17 04:53N 36°24' W 123°06'0 0.0 110 / 31015.3 14.1 13.4
2017-Apr-17 03:53N 36°24' W 123°06'0 0.0 300 / 41015.0 14.2 13.5
2017-Apr-17 02:53N 36°24' W 123°06'1111.4 230 / 71014.3 14.5 13.4
2017-Apr-17 01:53N 36°18' W 123°18'10 9.7 210 / 81013.7 14.7 13.5
2017-Apr-17 00:53N 36°18' W 123°30'12 6.0 200 / 61013.7 14.7 14.5
2017-Apr-16 22:53N 36°06' W 123°30'1312.9 180 / 121013.6 15.8 14.4
2017-Apr-16 21:53N 35°54' W 123°24'0 0.0 190 / 211014.1 18.7 14.8
2017-Apr-16 20:53N 35°54' W 123°24'1212.9 190 / 141013.7 14.4 14.8
2017-Apr-16 19:59N 36°03' W 123°15'334.2
2017-Apr-16 19:53N 36°00' W 123°12'712.6 150 / 81013.9 14.0 14.8
2017-Apr-16 19:20N 36°06' W 123°08'4 9.6
2017-Apr-16 18:56N 36°08' W 123°04'359.7
2017-Apr-16 18:53N 36°06' W 123°00'411.0 130 / 71014.3 13.7 14.9
2017-Apr-16 18:30N 36°10' W 122°59'510.2
2017-Apr-16 18:00N 36°13' W 122°53'438.9
2017-Apr-16 17:54N 36°12' W 122°48'3 7.9 150 / 71014.8 14.1 14.8
2017-Apr-16 17:30N 36°15' W 122°48'5 9.9
2017-Apr-16 17:00N 36°17' W 122°43'866.1
2017-Apr-16 16:54N 36°12' W 122°36'617.0 180 / 171014.7 14.0 14.4
2017-Apr-16 16:31N 36°17' W 122°41'1 2.1
2017-Apr-16 16:00N 36°18' W 122°42'0 3.4
2017-Apr-16 15:54N 36°18' W 122°42'410.2 160 / 61014.3 13.8 14.3
2017-Apr-16 15:30N 36°20' W 122°38'510.5
2017-Apr-16 15:00N 36°22' W 122°32'540.0
2017-Apr-16 14:54N 36°18' W 122°30'719.3 200 / 111014.6 13.3 13.4
2017-Apr-16 14:30N 36°25' W 122°27'711.2
2017-Apr-16 13:54N 36°24' W 122°18'616.4 170 / 41014.5 12.6 12.4
2017-Apr-16 13:30N 36°30' W 122°16'3 5.9
2017-Apr-16 13:00N 36°27' W 122°17'547.2
2017-Apr-16 12:54N 36°24' W 122°12'614.3 200 / 71014.2 12.5 12.0
2017-Apr-16 12:30N 36°23' W 122°19'611.2
2017-Apr-16 12:00N 36°17' W 122°21'651.9
2017-Apr-16 11:54N 36°12' W 122°18'4 9.3 200 / 71014.0 12.7 12.3
2017-Apr-16 11:30N 36°12' W 122°22'611.0
2017-Apr-16 11:00N 36°07' W 122°24'760.4
2017-Apr-16 10:54N 36°00' W 122°24'2 5.5 170 / 51014.3 13.3 13.3
2017-Apr-16 10:30N 36°01' W 122°26'4 8.9
2017-Apr-16 10:00N 35°57' W 122°28'439.0
2017-Apr-16 09:54N 35°54' W 122°24'614.9 270 / 51014.8 13.3 13.4
2017-Apr-16 09:30N 35°58' W 122°29'2 4.3
2017-Apr-16 09:00N 35°59' W 122°31'1 8.7
2017-Apr-16 08:54N 36°00' W 122°30'3 6.5 280 / 81015.4 32.1 13.4
2017-Apr-16 08:30N 36°01' W 122°33'3 6.5
2017-Apr-16 08:00N 36°01' W 122°29'435.9
2017-Apr-16 07:54N 36°00' W 122°24'1 3.3 340 / 71015.4 13.4 13.2
2017-Apr-16 07:30N 35°60' W 122°22'2 3.9
2017-Apr-16 07:00N 35°60' W 122°20'651.4
2017-Apr-16 06:54N 35°54' W 122°18'716.9 330 / 61015.6 13.4 13.3
2017-Apr-16 06:30N 36°00' W 122°20'2 3.7
2017-Apr-16 06:00N 36°02' W 122°22'431.2
2017-Apr-16 05:54N 36°00' W 122°18'614.7 330 / 81015.8 14.5 13.3
2017-Apr-16 05:30N 36°03' W 122°24'2 4.5
2017-Apr-16 05:00N 36°05' W 122°25'214.1
2017-Apr-16 04:54N 36°06' W 122°24'411.3 330 / 111015.8 13.2 13.4
2017-Apr-16 04:30N 36°10' W 122°24'611.3
2017-Apr-16 04:00N 36°16' W 122°22'543.1
2017-Apr-16 03:54N 36°12' W 122°18'924.3 320 / 161015.6 13.0 12.3
2017-Apr-16 03:30N 36°21' W 122°20'611.4
2017-Apr-16 03:00N 36°27' W 122°18'546.1
2017-Apr-16 02:54N 36°24' W 122°12'717.6 330 / 151014.8 13.1 12.7
2017-Apr-16 02:30N 36°31' W 122°14'510.1
2017-Apr-16 01:59N 36°33' W 122°08'438.9
2017-Apr-16 01:54N 36°30' W 122°06'615.1 340 / 171014.4 13.5 13.0
2017-Apr-16 01:30N 36°35' W 122°03'4 7.3
2017-Apr-16 01:00N 36°38' W 121°60'214.0
2017-Apr-16 00:54N 36°36' W 122°00'1 3.2 320 / 121015.2 13.8 13.4
2017-Apr-16 00:30N 36°37' W 121°60'0 0.7
2017-Apr-16 00:00N 36°37' W 121°59'3 6.2
2017-Apr-15 23:30N 36°34' W 121°60'5 9.7
2017-Apr-15 23:00N 36°29' W 121°59'769.4
2017-Apr-15 22:55N 36°24' W 121°54'3 7.6 040 / 71015.8 13.7 11.5
2017-Apr-15 22:30N 36°25' W 121°58'510.0
2017-Apr-15 22:00N 36°20' W 121°57'328.9
2017-Apr-15 21:55N 36°18' W 121°54'2 4.7 010 / 101016.0 13.0 12.1
2017-Apr-15 21:30N 36°17' W 121°56'0 0.7
2017-Apr-15 21:00N 36°16' W 121°55'546.5
2017-Apr-15 20:55N 36°12' W 121°54'410.6 360 / 101016.1 14.0 13.0
2017-Apr-15 20:31N 36°16' W 121°56'1 1.1
2017-Apr-15 20:00N 36°16' W 121°56'549.6
2017-Apr-15 19:55N 36°12' W 121°54'411.1 020 / 41016.5 15.1 11.8
2017-Apr-15 19:30N 36°16' W 121°57'510.1
2017-Apr-15 19:00N 36°13' W 122°03'225.3
2017-Apr-15 18:55N 36°12' W 122°00'716.5 290 / 61017.0 13.0 12.1
2017-Apr-15 18:30N 36°11' W 122°08'5 9.7
2017-Apr-15 18:00N 36°08' W 122°13'225.5
2017-Apr-15 17:55N 36°06' W 122°12'410.7 280 / 51017.6 12.1 12.5
2017-Apr-15 17:30N 36°07' W 122°17'0 0.4
2017-Apr-15 17:00N 36°07' W 122°17'445.3
2017-Apr-15 16:55N 36°06' W 122°12'513.6 010 / 171017.8 12.1 12.1
2017-Apr-15 16:30N 36°06' W 122°19'510.1
2017-Apr-15 16:00N 36°03' W 122°24'333.4
2017-Apr-15 15:55N 36°00' W 122°24'410.4 360 / 131018.2 12.6 12.9
2017-Apr-15 15:30N 36°01' W 122°29'4 8.4
2017-Apr-15 15:00N 35°59' W 122°34'6453.0
2017-Apr-15 15:00N 35°54' W 122°30'0 0.0 350 / 131017.310.8 13.6 8.713.2
2017-Apr-15 14:55N 35°54' W 122°30'1011.1 350 / 111018.4 12.6 13.2
2017-Apr-15 14:00N 35°55' W 122°42'1 8.6
2017-Apr-15 13:55N 35°54' W 122°42'510.3 310 / 81018.9 12.8 14.4
2017-Apr-15 13:25N 35°54' W 122°48'1 1.7
2017-Apr-15 13:00N 35°53' W 122°48'772.4
2017-Apr-15 12:55N 35°48' W 122°42'615.4 020 / 221018.5 12.7 14.5
2017-Apr-15 12:30N 35°53' W 122°47'1 1.4
2017-Apr-15 12:00N 35°53' W 122°46'659.4
2017-Apr-15 11:55N 35°48' W 122°42'512.4 020 / 211018.8 12.7 14.5
2017-Apr-15 11:30N 35°52' W 122°45'1 2.4
2017-Apr-15 11:00N 35°51' W 122°45'440.6
2017-Apr-15 10:55N 35°48' W 122°42'3 6.6 360 / 221019.3 12.9 14.4
2017-Apr-15 10:30N 35°50' W 122°44'1 2.6
2017-Apr-15 10:00N 35°49' W 122°43'114.9
2017-Apr-15 09:55N 35°48' W 122°42'5 6.8 010 / 231019.6 18.2 14.3
2017-Apr-15 09:12N 35°52' W 122°45'517.1
2017-Apr-15 08:55N 35°48' W 122°42'750.4 010 / 261020.2 19.4 14.5
2017-Apr-15 08:46N 35°54' W 122°47'2 4.9
2017-Apr-15 08:18N 35°56' W 122°48'1 5.0
2017-Apr-15 08:00N 35°57' W 122°49'332.3
2017-Apr-15 07:55N 35°54' W 122°48'7 8.9 010 / 251020.7 19.8 14.5
2017-Apr-15 07:04N 36°01' W 122°52'0 4.5
2017-Apr-15 07:00N 36°01' W 122°52'440.8
2017-Apr-15 06:55N 36°00' W 122°48'511.7 020 / 231021.0 19.9 14.5
2017-Apr-15 06:30N 36°02' W 122°53'1 2.0
2017-Apr-15 06:00N 36°01' W 122°53'4319.5
2017-Apr-15 06:00N 36°00' W 122°48'0 0.0 010 / 301019.510.8 13.6 6.114.4
2017-Apr-15 05:56N 36°00' W 122°48'3 7.3 010 / 281020.7 12.7 14.5
2017-Apr-15 05:30N 36°00' W 122°52'0 0.8
2017-Apr-15 05:00N 36°00' W 122°51'334.4
2017-Apr-15 04:56N 36°00' W 122°48'2 5.4 360 / 261021.3 13.0 14.6
2017-Apr-15 04:30N 35°59' W 122°51'1 2.7
2017-Apr-15 04:00N 35°58' W 122°50'4353.2
2017-Apr-15 04:00N 35°54' W 122°48'0 0.0 360 / 301019.710.8 15.0 5.314.4
2017-Apr-15 03:56N 35°54' W 122°48'4 8.8 360 / 271021.1 13.0 14.5
2017-Apr-15 03:30N 35°58' W 122°49'3 6.4
2017-Apr-15 03:00N 35°55' W 122°46'448.2
2017-Apr-15 02:56N 35°54' W 122°42'511.7 360 / 271020.5 13.1 14.5
2017-Apr-15 02:30N 35°52' W 122°48'4 8.9
2017-Apr-15 02:00N 35°50' W 122°53'457.5
2017-Apr-15 01:56N 35°48' W 122°48'717.6 260 / 91021.1 13.2 14.6
2017-Apr-15 01:30N 35°48' W 122°57'4 8.8
2017-Apr-15 01:00N 35°46' W 123°02'451.4
2017-Apr-15 00:56N 35°42' W 123°00'612.1 260 / 81021.7 13.0 14.2
2017-Apr-15 00:26N 35°43' W 123°07'11 7.6
2017-Apr-14 22:56N 35°36' W 123°18'239.0 010 / 221023.3 13.0 14.3
2017-Apr-14 22:52N 35°37' W 123°20'4 6.7
2017-Apr-14 22:18N 35°35' W 123°17'615.8
2017-Apr-14 21:56N 35°30' W 123°12'220.3 010 / 241023.2 13.2 14.4
2017-Apr-14 21:50N 35°32' W 123°13'3 8.9
2017-Apr-14 21:29N 35°30' W 123°10'4 8.8
2017-Apr-14 21:00N 35°26' W 123°07'332.2
2017-Apr-14 20:56N 35°24' W 123°06'3 6.2 020 / 251023.2 13.1 14.4
2017-Apr-14 20:27N 35°23' W 123°03'713.5
2017-Apr-14 19:56N 35°24' W 122°54'1111.5 360 / 251023.5 13.3 14.4
2017-Apr-14 18:56N 35°30' W 122°42'1111.5 360 / 261023.6 13.3 14.2
2017-Apr-14 17:56N 35°36' W 122°30'2 4.7 360 / 241023.5 13.0 13.9
2017-Apr-14 17:34N 35°38' W 122°30'110.2
2017-Apr-14 17:30N 35°38' W 122°30'1018.7
2017-Apr-14 17:00N 35°36' W 122°18'7205.0 360 / 241021.610.8 13.8 5.713.5
2017-Apr-14 16:58N 35°41' W 122°23'7188.6
2017-Apr-14 16:56N 35°36' W 122°18'717.2 350 / 281022.6 12.9 13.5
2017-Apr-14 16:30N 35°43' W 122°18'510.8
2017-Apr-14 16:00N 35°46' W 122°12'782.3
2017-Apr-14 15:56N 35°42' W 122°06'715.7 360 / 271022.3 12.7 13.4
2017-Apr-14 15:30N 35°49' W 122°07'510.8
2017-Apr-14 15:00N 35°51' W 122°01'3266.0
2017-Apr-14 15:00N 35°48' W 122°00'0 0.0 360 / 301020.710.8 12.2 6.613.3
2017-Apr-14 14:56N 35°48' W 122°00'716.5 350 / 281021.8 12.2 13.3
2017-Apr-14 14:30N 35°54' W 121°55'610.2
2017-Apr-14 13:56N 35°54' W 121°48'4 9.4 360 / 301020.4 11.8 13.2
2017-Apr-14 13:30N 35°56' W 121°52'1 1.6
2017-Apr-14 13:00N 35°56' W 121°51'340.3
2017-Apr-14 12:56N 35°54' W 121°48'2 4.6 350 / 321020.1 11.8 13.3
2017-Apr-14 12:30N 35°55' W 121°50'1 2.7
2017-Apr-14 12:00N 35°55' W 121°48'5397.4
2017-Apr-14 12:00N 35°54' W 121°42'572.9 350 / 301018.8 5.4 10.6 8.413.6
2017-Apr-14 11:56N 35°54' W 121°48'1 3.2 350 / 291020.1 11.9 13.5
2017-Apr-14 11:30N 35°55' W 121°47'1 1.5
2017-Apr-14 11:00N 35°55' W 121°46'347.4
2017-Apr-14 10:57N 35°54' W 121°42'2 4.9 350 / 311019.9 12.3 13.7
2017-Apr-14 10:30N 35°54' W 121°45'2 3.6
2017-Apr-14 10:00N 35°55' W 121°47'463.3
2017-Apr-14 09:57N 35°54' W 121°42'613.1 010 / 211020.8 12.3 13.7
2017-Apr-14 09:30N 35°55' W 121°49'2 3.4
2017-Apr-14 09:00N 35°56' W 121°51'348.6
2017-Apr-14 08:57N 35°54' W 121°48'3 6.8 010 / 231021.5 12.4 13.7
2017-Apr-14 08:30N 35°56' W 121°51'1 1.3
2017-Apr-14 08:00N 35°56' W 121°50'345.1
2017-Apr-14 07:57N 35°54' W 121°48'3 6.5 350 / 271021.2 12.6 13.7
2017-Apr-14 07:30N 35°57' W 121°50'1 1.2
2017-Apr-14 07:00N 35°57' W 121°49'345.1
2017-Apr-14 06:57N 35°54' W 121°48'3 6.7 350 / 271021.0 12.7 13.6
2017-Apr-14 06:30N 35°57' W 121°47'4 7.0
2017-Apr-14 06:00N 35°57' W 121°42'340.5
2017-Apr-14 05:57N 35°54' W 121°42'3 5.7 350 / 261020.7 12.8 13.4
2017-Apr-14 05:30N 35°57' W 121°41'1 2.3
2017-Apr-14 05:00N 35°57' W 121°43'363.5
2017-Apr-14 04:57N 35°54' W 121°42'4 8.7 350 / 211021.4 13.0 13.6
2017-Apr-14 04:28N 35°58' W 121°44'2 4.0
2017-Apr-14 04:00N 35°59' W 121°46'6100.7
2017-Apr-14 03:57N 35°54' W 121°42'817.4 350 / 241021.3 25.4 13.8
2017-Apr-14 03:30N 35°60' W 121°48'3 5.2
2017-Apr-14 03:00N 35°58' W 121°51'467.9
2017-Apr-14 02:57N 35°54' W 121°48'3 6.1 350 / 181020.3 13.1 13.9
2017-Apr-14 02:30N 35°56' W 121°50'510.1
2017-Apr-14 02:00N 35°59' W 121°44'585.1
2017-Apr-14 01:57N 35°54' W 121°42'716.8 330 / 271019.2 13.5 13.3
2017-Apr-14 01:30N 36°01' W 121°40'1 3.0
2017-Apr-14 01:00N 36°02' W 121°38'239.1
2017-Apr-14 00:57N 36°00' W 121°36'2 5.0 330 / 211019.3 13.5 13.8
2017-Apr-14 00:30N 36°02' W 121°37'2 4.3
2017-Apr-14 00:00N 35°60' W 121°37'510.0
2017-Apr-13 23:29N 35°56' W 121°33'5 9.7
2017-Apr-13 22:58N 35°52' W 121°29'6196.1
2017-Apr-13 22:57N 35°48' W 121°24'8 7.7 350 / 181018.7 14.3 14.9
2017-Apr-13 21:57N 35°42' W 121°18'10 9.7 340 / 181019.0 14.8 14.8
2017-Apr-13 20:57N 35°42' W 121°30'1111.4 250 / 101019.3 14.7 14.9
2017-Apr-13 19:57N 35°36' W 121°42'1111.5 250 / 101019.1 14.6 14.5
2017-Apr-13 18:57N 35°30' W 121°54'8 7.7 240 / 81018.7 14.3 14.2
2017-Apr-13 17:57N 35°24' W 122°00'417.4 270 / 81018.4 14.9 14.3
2017-Apr-13 17:41N 35°26' W 122°05'0 1.2
2017-Apr-13 17:28N 35°26' W 122°05'4 8.3
2017-Apr-13 16:58N 35°24' W 122°00'1111.5 250 / 101017.8 14.1 14.2
2017-Apr-13 15:58N 35°18' W 122°12'   260 / 71017.0 14.9 14.3
Track history (hours):
 
Tides and Currents Weather Stations Pressure Air Temp Water Temp Dewpoint Dewpoint Depression Visibility Wind Speed Wind Dir Waves Ship Positions

Oceanographic research ship Reuben Lasker (United States)

Last reported at 2017-Apr-23 15:30 UTC. Time now 2017-Apr-23 15:53 UTC.
Position N 37°47' W 122°23'.

Length 63 m; draft 8 m.

Type: Other ship. MMSI: 369970573.

Date/timePositionNaut miles runAvg speedWind from/ knotsBaromVisibWave heightAir tempDewpointWater temp
2017-Apr-23 15:30N 37°47' W 122°23'0 0.0
2017-Apr-23 15:00N 37°47' W 122°23'0 0.0
2017-Apr-23 14:00N 37°47' W 122°23'0 0.0
2017-Apr-23 13:30N 37°47' W 122°23'0 0.0
2017-Apr-23 13:00N 37°47' W 122°23'0 0.0
2017-Apr-23 12:30N 37°47' W 122°23'0 0.0
2017-Apr-23 12:00N 37°47' W 122°23'0 0.0
2017-Apr-23 11:30N 37°47' W 122°23'0 0.0
2017-Apr-23 11:00N 37°47' W 122°23'0 0.0
2017-Apr-23 10:30N 37°47' W 122°23'0 0.0
2017-Apr-23 10:00N 37°47' W 122°23'0 0.0
2017-Apr-23 09:30N 37°47' W 122°23'0 0.0
2017-Apr-23 09:00N 37°47' W 122°23'0 0.0
2017-Apr-23 08:30N 37°47' W 122°23'0 0.0
2017-Apr-23 08:00N 37°47' W 122°23'0 0.0
2017-Apr-23 07:30N 37°47' W 122°23'0 0.0
2017-Apr-23 07:00N 37°47' W 122°23'0 0.0
2017-Apr-23 06:30N 37°47' W 122°23'0 0.0
2017-Apr-23 06:00N 37°47' W 122°23'0 0.0
2017-Apr-23 05:30N 37°47' W 122°23'0 0.0
2017-Apr-23 05:00N 37°47' W 122°23'0 0.0
2017-Apr-23 04:30N 37°47' W 122°23'0 0.0
2017-Apr-23 04:00N 37°47' W 122°23'0 0.0
2017-Apr-23 03:27N 37°47' W 122°23'0 0.0
2017-Apr-23 03:00N 37°47' W 122°23'0 0.0
2017-Apr-23 02:30N 37°47' W 122°23'0 0.0
2017-Apr-23 02:00N 37°47' W 122°23'0 0.0
2017-Apr-23 01:30N 37°47' W 122°23'0 0.0
2017-Apr-23 01:00N 37°47' W 122°23'0 0.0
2017-Apr-23 00:30N 37°47' W 122°23'0 0.0
2017-Apr-23 00:00N 37°47' W 122°23'0 0.0
2017-Apr-22 23:30N 37°47' W 122°23'0 0.0
2017-Apr-22 23:00N 37°47' W 122°23'0 0.0
2017-Apr-22 22:30N 37°47' W 122°23'0 0.0
2017-Apr-22 22:00N 37°47' W 122°23'0 0.0
2017-Apr-22 21:30N 37°47' W 122°23'0 0.0
2017-Apr-22 21:00N 37°47' W 122°23'0 0.0
2017-Apr-22 20:30N 37°47' W 122°23'0 0.0
2017-Apr-22 20:00N 37°47' W 122°23'0 0.0
2017-Apr-22 19:30N 37°47' W 122°23'0 0.0
2017-Apr-22 19:00N 37°47' W 122°23'0 0.0
2017-Apr-22 18:30N 37°47' W 122°23'0 0.0
2017-Apr-22 18:00N 37°47' W 122°23'0 0.1
2017-Apr-22 17:30N 37°47' W 122°23'2 3.0
2017-Apr-22 17:00N 37°49' W 122°24'1 3.2
2017-Apr-22 16:49N 37°48' W 122°24'414.3 260 / 71017.3 15.7 14.7
2017-Apr-22 16:30N 37°49' W 122°29'5 9.4
2017-Apr-22 16:00N 37°47' W 122°35'5 9.3
2017-Apr-22 15:30N 37°45' W 122°40'1 1.7
2017-Apr-22 15:01N 37°45' W 122°41'2 4.8
2017-Apr-22 14:30N 37°45' W 122°44'4 6.0
2017-Apr-22 13:49N 37°42' W 122°48'723.9 190 / 31016.8 13.4 13.7
2017-Apr-22 13:30N 37°49' W 122°52'3 6.3
2017-Apr-22 13:00N 37°50' W 122°55'211.8
2017-Apr-22 12:49N 37°48' W 122°54'517.0 240 / 41016.8 13.2 13.7
2017-Apr-22 12:30N 37°52' W 122°59'4 7.1
2017-Apr-22 12:00N 37°53' W 123°03'526.4
2017-Apr-22 11:49N 37°48' W 123°00'826.6 210 / 41016.7 13.3 14.0
2017-Apr-22 11:30N 37°52' W 123°09'5 8.9
2017-Apr-22 11:00N 37°50' W 123°14'315.1
2017-Apr-22 10:49N 37°48' W 123°12'619.3 190 / 51016.2 13.3 13.7
2017-Apr-22 10:30N 37°49' W 123°19'4 8.7
2017-Apr-22 10:00N 37°48' W 123°25'632.2
2017-Apr-22 09:50N 37°42' W 123°24'619.9 220 / 41016.6 13.7 13.3
2017-Apr-22 09:30N 37°46' W 123°30'4 8.3
2017-Apr-22 09:00N 37°45' W 123°35'318.8
2017-Apr-22 08:50N 37°42' W 123°36'310.4 230 / 41016.3 13.8 14.1
2017-Apr-22 08:30N 37°45' W 123°37'2 3.4
2017-Apr-22 08:00N 37°46' W 123°39'525.1
2017-Apr-22 07:50N 37°42' W 123°36'720.4 280 / 51016.8 13.7 13.7
2017-Apr-22 07:30N 37°47' W 123°41'1 1.1
2017-Apr-22 07:00N 37°47' W 123°42'529.3
2017-Apr-22 06:50N 37°42' W 123°42'517.1 310 / 41016.4 13.7 13.8
2017-Apr-22 06:30N 37°47' W 123°42'1 1.4
2017-Apr-22 06:00N 37°48' W 123°41'420.6
2017-Apr-22 05:50N 37°48' W 123°36'2 6.9 310 / 101017.0 13.8 13.7
2017-Apr-22 05:30N 37°49' W 123°39'4 8.7
2017-Apr-22 05:00N 37°51' W 123°34'422.5
2017-Apr-22 04:50N 37°48' W 123°30'515.1 330 / 151016.6 13.7 13.6
2017-Apr-22 04:30N 37°53' W 123°29'4 8.8
2017-Apr-22 04:00N 37°55' W 123°24'5348.6
2017-Apr-22 04:00N 37°54' W 123°18'0 0.0 340 / 131015.110.8 13.710.713.5
2017-Apr-22 03:50N 37°54' W 123°18'3 9.4 340 / 151016.2 13.7 13.4
2017-Apr-22 03:30N 37°57' W 123°19'4 8.9
2017-Apr-22 03:00N 37°59' W 123°14'528.9
2017-Apr-22 02:50N 37°54' W 123°12'723.3 340 / 141016.0 13.7 13.1
2017-Apr-22 02:30N 38°01' W 123°09'4 8.7
2017-Apr-22 02:00N 38°03' W 123°04'526.1
2017-Apr-22 01:50N 38°00' W 123°00'413.6 330 / 111016.5 14.2 14.3
2017-Apr-22 01:30N 38°04' W 123°02'1 2.3
2017-Apr-22 01:00N 38°04' W 123°01'424.4
2017-Apr-22 00:50N 38°00' W 123°00'413.3 250 / 61017.2 13.9 14.3
2017-Apr-22 00:30N 38°04' W 123°02'4 7.4
2017-Apr-22 00:00N 38°02' W 123°06'4 8.4
2017-Apr-21 23:30N 37°60' W 123°11'4 8.2
2017-Apr-21 23:00N 37°58' W 123°15'525.5
2017-Apr-21 22:50N 37°54' W 123°12'620.1 260 / 61018.4 13.9 13.7
2017-Apr-21 22:30N 37°56' W 123°20'4 8.4
2017-Apr-21 22:00N 37°54' W 123°24'631.4
2017-Apr-21 21:50N 37°48' W 123°24'515.8 340 / 81019.1 14.3 13.7
2017-Apr-21 21:30N 37°52' W 123°27'2 4.2
2017-Apr-21 21:00N 37°51' W 123°30'318.4
2017-Apr-21 20:50N 37°48' W 123°30'3 9.9 270 / 61020.1 13.8 13.6
2017-Apr-21 20:30N 37°49' W 123°34'3 6.6
2017-Apr-21 20:00N 37°48' W 123°37'632.7
2017-Apr-21 19:50N 37°42' W 123°36'617.4 330 / 61020.7 14.2 14.3
2017-Apr-21 19:30N 37°47' W 123°40'4 8.8
2017-Apr-21 19:00N 37°44' W 123°45'318.4
2017-Apr-21 18:50N 37°42' W 123°42'412.9 250 / 61021.3 13.8 14.3
2017-Apr-21 18:30N 37°44' W 123°47'0 1.0
2017-Apr-21 18:00N 37°44' W 123°46'212.9
2017-Apr-21 17:50N 37°42' W 123°48'310.0 260 / 81021.5 13.6 14.0
2017-Apr-21 17:31N 37°41' W 123°52'5 9.5
2017-Apr-21 17:01N 37°39' W 123°57'420.0
2017-Apr-21 16:50N 37°36' W 123°54'722.1 250 / 91021.5 13.7 13.8
2017-Apr-21 16:31N 37°36' W 124°03'510.6
2017-Apr-21 16:00N 37°33' W 124°09'422.4
2017-Apr-21 15:50N 37°30' W 124°06'720.9 310 / 61021.8 13.8 13.7
2017-Apr-21 15:30N 37°31' W 124°14'4 8.9
2017-Apr-21 15:00N 37°29' W 124°19'526.9
2017-Apr-21 14:50N 37°24' W 124°18'613.3 350 / 61022.2 14.0 14.1
2017-Apr-21 14:23N 37°26' W 124°25'4 7.9
2017-Apr-21 13:50N 37°24' W 124°30'1 1.7 260 / 41022.6 13.6 14.2
2017-Apr-21 13:30N 37°24' W 124°30'1 1.6
2017-Apr-21 13:00N 37°23' W 124°29'741.3
2017-Apr-21 12:51N 37°18' W 124°24'3 7.0 020 / 171022.5 13.6 14.1
2017-Apr-21 12:28N 37°20' W 124°26'3 4.1
2017-Apr-21 11:51N 37°18' W 124°24'6 6.0 020 / 171023.4 22.7 14.2
2017-Apr-21 10:51N 37°24' W 124°24'310.3 020 / 121024.3 17.1 14.2
2017-Apr-21 10:31N 37°25' W 124°28'0 6.7
2017-Apr-21 10:30N 37°25' W 124°28'811.5
2017-Apr-21 09:51N 37°18' W 124°24'3 7.6 020 / 201024.2 13.8 14.3
2017-Apr-21 09:28N 37°15' W 124°23'5 8.6
2017-Apr-21 08:51N 37°12' W 124°18'5 4.8 020 / 151025.8 14.0 14.6
2017-Apr-21 07:51N 37°12' W 124°24'0 0.0 010 / 131026.2 16.8 14.6
2017-Apr-21 06:51N 37°12' W 124°24'339.7 010 / 201026.1 14.1 14.5
2017-Apr-21 06:47N 37°14' W 124°26'3 9.9
2017-Apr-21 06:31N 37°11' W 124°26'5 9.7
2017-Apr-21 05:57N 37°06' W 124°24'656.5
2017-Apr-21 05:51N 37°00' W 124°24'613.4 340 / 91026.8 14.4 15.3
2017-Apr-21 05:25N 37°06' W 124°24'0 1.2
2017-Apr-21 05:01N 37°06' W 124°23'0 2.9
2017-Apr-21 04:51N 37°06' W 124°24'1 3.5 020 / 151026.9 14.4 15.3
2017-Apr-21 04:31N 37°07' W 124°25'2 4.8
2017-Apr-21 04:01N 37°08' W 124°27'421.3
2017-Apr-21 03:51N 37°06' W 124°24'618.5 350 / 101026.5 15.5 15.4
2017-Apr-21 03:31N 37°10' W 124°30'1 1.3
2017-Apr-21 03:01N 37°10' W 124°30'740.1
2017-Apr-21 02:51N 37°06' W 124°24'3 9.4 010 / 181025.9 14.4 15.4
2017-Apr-21 02:29N 37°09' W 124°26'3 7.1
2017-Apr-21 02:00N 37°08' W 124°22'422.5
2017-Apr-21 01:51N 37°06' W 124°18'5 4.8 010 / 181026.0 14.5 14.9
2017-Apr-21 00:51N 37°06' W 124°12'16 7.8 360 / 191026.8 15.1 15.1
2017-Apr-20 22:51N 37°12' W 123°54'1111.3 350 / 171027.2 14.7 13.9
2017-Apr-20 21:51N 37°18' W 123°42'912.5 350 / 181027.6 14.5 13.9
2017-Apr-20 21:08N 37°25' W 123°36'516.8
2017-Apr-20 20:51N 37°24' W 123°30'510.7 010 / 161026.9 13.8 13.7
2017-Apr-20 20:22N 37°25' W 123°36'5 9.9
2017-Apr-20 19:51N 37°24' W 123°30'8 7.7 360 / 121027.6 14.6 13.8
2017-Apr-20 18:51N 37°30' W 123°24'4 9.2 350 / 161027.5 14.5 13.5
2017-Apr-20 18:23N 37°33' W 123°20'718.1
2017-Apr-20 18:00N 37°36' W 123°12'3403.1 350 / 131026.310.8 13.910.912.8
2017-Apr-20 17:59N 37°35' W 123°15'638.6
2017-Apr-20 17:51N 37°30' W 123°12'822.6 350 / 161027.4 14.1 13.1
2017-Apr-20 17:30N 37°37' W 123°10'510.7
2017-Apr-20 17:00N 37°40' W 123°04'529.8
2017-Apr-20 16:51N 37°36' W 123°00'514.0 310 / 111027.1 13.9 13.2
2017-Apr-20 16:30N 37°40' W 123°03'1 1.8
2017-Apr-20 16:00N 37°40' W 123°02'426.9
2017-Apr-20 15:51N 37°36' W 123°00'720.0 360 / 131026.3 13.7 13.3
2017-Apr-20 15:30N 37°42' W 122°58'1 2.1
2017-Apr-20 15:00N 37°43' W 122°57'317.3
2017-Apr-20 14:52N 37°42' W 122°54'4 4.5 360 / 101026.0 14.1 13.1
2017-Apr-20 14:00N 37°45' W 122°52'531.3
2017-Apr-20 13:52N 37°42' W 122°48'513.9 360 / 131025.3 13.7 13.9
2017-Apr-20 13:30N 37°46' W 122°51'1 2.5
2017-Apr-20 13:00N 37°45' W 122°52'429.0
2017-Apr-20 12:52N 37°42' W 122°48'617.1 340 / 81024.7 13.8 13.7
2017-Apr-20 12:30N 37°41' W 122°56'6 9.9
2017-Apr-20 11:56N 37°39' W 123°02'453.7
2017-Apr-20 11:52N 37°36' W 123°00'1212.4 290 / 71025.3 13.8 13.1
2017-Apr-20 10:54N 37°40' W 123°14'4123.5
2017-Apr-20 10:52N 37°36' W 123°12'411.9 340 / 111025.0 14.1 12.9
2017-Apr-20 10:30N 37°40' W 123°13'2 3.1
2017-Apr-20 10:00N 37°40' W 123°11'639.5
2017-Apr-20 09:52N 37°36' W 123°06'513.6 310 / 81024.6 14.0 13.1
2017-Apr-20 09:30N 37°40' W 123°09'2 3.3
2017-Apr-20 09:00N 37°41' W 123°07'528.3
2017-Apr-20 08:51N 37°36' W 123°06'2 6.0 230 / 31024.4 13.9 13.2
2017-Apr-20 08:30N 37°37' W 123°04'510.2
2017-Apr-20 08:00N 37°33' W 123°01'316.7
2017-Apr-20 07:51N 37°30' W 123°00'2 7.0 120 / 21024.5 14.0 13.4
2017-Apr-20 07:30N 37°28' W 122°58'2 4.9
2017-Apr-20 07:00N 37°27' W 122°56'317.7
2017-Apr-20 06:51N 37°24' W 122°54'2 6.9 310 / 51024.5 13.8 13.5
2017-Apr-20 06:30N 37°26' W 122°55'2 3.7
2017-Apr-20 06:00N 37°26' W 122°52'423.8
2017-Apr-20 05:51N 37°24' W 122°48'3 7.6 190 / 41024.3 16.9 13.6
2017-Apr-20 05:30N 37°26' W 122°50'710.4
2017-Apr-20 04:51N 37°24' W 122°42'129.3 170 / 61024.3 14.7 13.7
2017-Apr-20 04:48N 37°25' W 122°43'7 8.1
2017-Apr-20 03:54N 37°31' W 122°36'112.0
2017-Apr-20 03:51N 37°30' W 122°36'1 4.4 230 / 101023.9 14.5 13.6
2017-Apr-20 03:30N 37°31' W 122°35'1 0.9
2017-Apr-20 02:53N 37°31' W 122°34'476.6
2017-Apr-20 02:51N 37°30' W 122°30'412.2 160 / 61023.5 14.4 13.8
2017-Apr-20 02:30N 37°32' W 122°34'2 3.8
2017-Apr-20 01:52N 37°30' W 122°36'016.6
2017-Apr-20 01:51N 37°30' W 122°36'3 8.8 190 / 101023.8 15.1 13.6
2017-Apr-20 01:28N 37°28' W 122°40'4 9.5
2017-Apr-20 01:00N 37°26' W 122°44'317.9
2017-Apr-20 00:51N 37°24' W 122°42'617.4 180 / 111024.2 15.2 13.7
2017-Apr-20 00:30N 37°24' W 122°49'5 9.5
2017-Apr-19 23:58N 37°21' W 122°55'5 9.9
2017-Apr-19 23:29N 37°19' W 123°00'5 9.7
2017-Apr-19 23:00N 37°16' W 123°05'528.7
2017-Apr-19 22:51N 37°12' W 123°06'5 9.5 190 / 121024.2 15.4 14.0
2017-Apr-19 22:17N 37°13' W 123°13'3 9.4
2017-Apr-19 21:57N 37°12' W 123°16'659.3
2017-Apr-19 21:51N 37°06' W 123°12'615.0 180 / 131024.2 15.3 14.4
2017-Apr-19 21:25N 37°11' W 123°16'1 2.5
2017-Apr-19 20:57N 37°11' W 123°17'765.4
2017-Apr-19 20:51N 37°06' W 123°12'721.1 180 / 101024.2 14.7 14.3
2017-Apr-19 20:30N 37°10' W 123°20'5 7.6
2017-Apr-19 19:51N 37°06' W 123°24'329.4 170 / 131024.2 15.6 14.5
2017-Apr-19 19:44N 37°06' W 123°28'2 9.4
2017-Apr-19 19:29N 37°05' W 123°30'510.2
2017-Apr-19 18:58N 37°02' W 123°36'217.7
2017-Apr-19 18:51N 37°00' W 123°36'8 7.7 180 / 121024.3 15.7 14.0
2017-Apr-19 17:51N 36°54' W 123°30'611.9 120 / 41024.1 14.7 13.8
2017-Apr-19 17:20N 37°00' W 123°31'2 6.4
2017-Apr-19 16:59N 37°00' W 123°33'319.5
2017-Apr-19 16:51N 37°00' W 123°30'616.4 210 / 91023.8 16.2 13.7
2017-Apr-19 16:28N 37°00' W 123°38'714.8
2017-Apr-19 16:00N 36°54' W 123°42'5141.8 210 / 91022.310.8 17.412.713.8
2017-Apr-19 15:57N 36°59' W 123°42'547.7
2017-Apr-19 15:51N 36°54' W 123°42'513.6 210 / 91023.4 16.1 14.1
2017-Apr-19 15:28N 36°57' W 123°48'4 9.7
2017-Apr-19 15:00N 36°55' W 123°52'321.9
2017-Apr-19 14:51N 36°54' W 123°48'7 8.9 210 / 111022.6 15.3 14.8
2017-Apr-19 14:05N 36°53' W 123°56'520.6
2017-Apr-19 13:51N 36°48' W 123°54'511.9 200 / 121022.2 15.2 14.9
2017-Apr-19 13:25N 36°50' W 123°60'0 0.9
2017-Apr-19 13:00N 36°51' W 123°59'531.9
2017-Apr-19 12:51N 36°48' W 123°54'412.4 220 / 91021.9 15.1 15.0
2017-Apr-19 12:30N 36°51' W 123°58'5 9.0
2017-Apr-19 12:00N 36°50' W 123°52'426.4
2017-Apr-19 11:51N 36°48' W 123°48'2 7.2 220 / 41022.0 14.8 14.3
2017-Apr-19 11:30N 36°50' W 123°47'2 4.5
2017-Apr-19 11:00N 36°50' W 123°44'319.4
2017-Apr-19 10:52N 36°48' W 123°42'2 5.9 180 / 31022.3 14.7 14.1
2017-Apr-19 10:30N 36°50' W 123°40'6 9.9
2017-Apr-19 09:53N 36°49' W 123°33'3146.6
2017-Apr-19 09:52N 36°48' W 123°30'4 6.2 250 / 31022.5 14.5 14.4
2017-Apr-19 09:16N 36°49' W 123°25'3 9.9
2017-Apr-19 09:00N 36°49' W 123°22'423.6
2017-Apr-19 08:52N 36°48' W 123°18'1 2.9 290 / 51022.7 14.3 13.9
2017-Apr-19 08:30N 36°48' W 123°17'1 2.6
2017-Apr-19 07:56N 36°48' W 123°15'230.9
2017-Apr-19 07:52N 36°48' W 123°12'410.8 280 / 71023.1 15.8 13.9
2017-Apr-19 07:30N 36°47' W 123°17'2 4.0
2017-Apr-19 07:00N 36°47' W 123°19'533.9
2017-Apr-19 06:52N 36°42' W 123°18'515.4 250 / 51023.0 14.4 14.1
2017-Apr-19 06:30N 36°46' W 123°22'4 8.7
2017-Apr-19 06:00N 36°45' W 123°28'429.8
2017-Apr-19 05:52N 36°42' W 123°24'616.7 210 / 51023.1 14.7 14.4
2017-Apr-19 05:30N 36°42' W 123°31'611.0
2017-Apr-19 05:00N 36°38' W 123°37'31868.4
2017-Apr-19 05:00N 36°36' W 123°36'0 0.0 180 / 21021.610.8 14.911.513.4
2017-Apr-19 04:52N 36°36' W 123°36'1111.4 170 / 31022.7 15.1 14.5
2017-Apr-19 03:52N 36°30' W 123°48'0 0.0 230 / 41022.1 15.6 15.5
2017-Apr-19 02:52N 36°30' W 123°48'5 4.8 290 / 71021.6 15.5 15.2
2017-Apr-19 01:52N 36°30' W 123°42'8 7.7 310 / 101021.5 15.5 15.2
2017-Apr-19 00:52N 36°36' W 123°36'2311.3 340 / 81020.8 15.4 14.8
2017-Apr-18 22:52N 36°48' W 123°12'3 5.7 320 / 111020.7 15.3 14.5
2017-Apr-18 22:18N 36°51' W 123°10'510.6
2017-Apr-18 21:52N 36°48' W 123°06'0 0.0 300 / 71020.6 15.3 13.4
2017-Apr-18 20:52N 36°48' W 123°06'8 7.7 300 / 51020.1 15.9 13.9
2017-Apr-18 19:52N 36°54' W 123°00'10 9.6 340 / 51019.9 14.1 13.7
2017-Apr-18 18:52N 36°54' W 122°48'1111.3 310 / 41020.4 13.3 13.2
2017-Apr-18 17:52N 37°00' W 122°36'1011.2 320 / 71020.4 13.0 12.7
2017-Apr-18 17:00N 37°09' W 122°32'323.8
2017-Apr-18 16:52N 37°06' W 122°30'615.4 340 / 31019.9 12.7 12.6
2017-Apr-18 16:30N 37°11' W 122°27'6 8.9
2017-Apr-18 15:52N 37°06' W 122°24'8 7.7 010 / 31019.5 12.7 12.5
2017-Apr-18 14:52N 37°00' W 122°18'0 0.0 010 / 71019.1 12.5 12.2
2017-Apr-18 13:52N 37°00' W 122°18'363.1 080 / 21018.3 12.6 12.6
2017-Apr-18 13:49N 37°02' W 122°21'3 3.2
2017-Apr-18 12:52N 37°00' W 122°18'416.2 110 / 11018.0 12.9 12.8
2017-Apr-18 12:38N 36°60' W 122°23'7 8.7
2017-Apr-18 11:52N 36°54' W 122°18'6 6.0 110 / 51017.4 12.9 12.8
2017-Apr-18 10:52N 36°48' W 122°18'5 4.8 100 / 31017.5 13.3 13.0
2017-Apr-18 09:52N 36°48' W 122°12'5 7.7 010 / 41017.7 12.8 12.8
2017-Apr-18 09:09N 36°53' W 122°12'1 3.3
2017-Apr-18 08:58N 36°53' W 122°12'768.8
2017-Apr-18 08:52N 36°48' W 122°06'819.6 280 / 41018.2 12.8 12.5
2017-Apr-18 08:28N 36°51' W 122°15'4 6.2
2017-Apr-18 07:52N 36°48' W 122°12'5 4.8 020 / 681018.5 12.8 12.8
2017-Apr-18 06:52N 36°48' W 122°06'2 4.0 350 / 91018.9 12.8 12.7
2017-Apr-18 06:23N 36°50' W 122°06'410.3
2017-Apr-18 06:00N 36°47' W 122°04'637.9
2017-Apr-18 05:52N 36°42' W 122°00'5 5.6 330 / 91018.8 13.0 12.7
2017-Apr-18 05:00N 36°46' W 122°03'535.8
2017-Apr-18 04:52N 36°42' W 122°00'511.8 320 / 71018.6 13.0 12.6
2017-Apr-18 04:28N 36°46' W 122°02'5 7.7
2017-Apr-18 03:52N 36°42' W 122°00'8 7.8 340 / 51017.9 12.8 12.6
2017-Apr-18 02:53N 36°48' W 121°54'527.2 260 / 41017.5 12.9 12.8
2017-Apr-18 02:43N 36°50' W 121°59'1 4.0
2017-Apr-18 02:29N 36°51' W 121°60'3 5.9
2017-Apr-18 02:00N 36°53' W 122°03'539.1
2017-Apr-18 01:53N 36°48' W 122°00'5 4.8 270 / 71017.3 13.2 12.8
2017-Apr-18 00:53N 36°48' W 121°54'0 0.0 360 / 31017.5 12.8 13.0
2017-Apr-17 22:53N 36°48' W 121°54'313.0 300 / 31018.0 13.3 13.0
2017-Apr-17 22:37N 36°50' W 121°57'1 8.3
2017-Apr-17 22:29N 36°49' W 121°59'1 2.0
2017-Apr-17 22:00N 36°49' W 121°60'1 7.1
2017-Apr-17 21:53N 36°48' W 122°00'514.4 270 / 81018.0 13.3 12.6
2017-Apr-17 21:30N 36°52' W 122°04'5 9.5
2017-Apr-17 21:00N 36°55' W 122°09'219.2
2017-Apr-17 20:53N 36°54' W 122°06'4 9.5 200 / 21017.8 12.9 12.9
2017-Apr-17 20:30N 36°57' W 122°09'3 6.4
2017-Apr-17 20:00N 36°55' W 122°12'1 8.9
2017-Apr-17 19:53N 36°54' W 122°12'513.0 120 / 91016.8 12.9 12.7
2017-Apr-17 19:30N 36°53' W 122°18'5 9.8
2017-Apr-17 19:00N 36°50' W 122°23'216.8
2017-Apr-17 18:53N 36°48' W 122°24'3 9.3 240 / 21017.9 13.3 13.4
2017-Apr-17 18:30N 36°47' W 122°28'510.0
2017-Apr-17 18:00N 36°45' W 122°34'432.0
2017-Apr-17 17:53N 36°42' W 122°30'720.3 230 / 31017.8 13.5 12.8
2017-Apr-17 17:30N 36°42' W 122°39'5 9.2
2017-Apr-17 17:00N 36°40' W 122°44'433.4
2017-Apr-17 16:53N 36°36' W 122°42'617.0 220 / 21017.3 13.1 13.2
2017-Apr-17 16:30N 36°38' W 122°50'3 7.0
2017-Apr-17 16:00N 36°35' W 122°53'749.6
2017-Apr-17 15:53N 36°30' W 122°48'718.0 060 / 11016.9 13.0 13.5
2017-Apr-17 15:30N 36°36' W 122°53'1 2.9
2017-Apr-17 15:00N 36°35' W 122°54'5419.2
2017-Apr-17 15:00N 36°30' W 122°54'0 0.0 060 / 21015.8 0.5 13.911.113.2
2017-Apr-17 14:53N 36°30' W 122°54'514.5 080 / 31016.5 12.4 13.2
2017-Apr-17 14:30N 36°33' W 122°60'1015.8
2017-Apr-17 13:53N 36°24' W 123°06'513.3 150 / 31016.1 13.0 13.2
2017-Apr-17 13:30N 36°28' W 123°10'1 2.2
2017-Apr-17 13:00N 36°27' W 123°12'323.1
2017-Apr-17 12:53N 36°24' W 123°12'3 6.9 150 / 11015.8 13.4 13.4
2017-Apr-17 12:30N 36°27' W 123°12'3 4.1
2017-Apr-17 11:53N 36°24' W 123°12'8 7.7 280 / 21015.4 13.5 13.3
2017-Apr-17 10:53N 36°18' W 123°18'6 6.0 160 / 11015.6 13.7 13.2
2017-Apr-17 09:53N 36°24' W 123°18'5 4.8 320 / 261015.3 13.5 13.3
2017-Apr-17 08:53N 36°24' W 123°12'752.3 310 / 71015.3 13.4 13.5
2017-Apr-17 08:44N 36°30' W 123°17'3 8.2
2017-Apr-17 08:24N 36°32' W 123°16'1 2.9
2017-Apr-17 08:00N 36°33' W 123°14'324.5
2017-Apr-17 07:53N 36°30' W 123°12'2 6.3 300 / 21015.7 12.7 13.4
2017-Apr-17 07:30N 36°32' W 123°14'2 3.1
2017-Apr-17 07:00N 36°30' W 123°13'1 9.3
2017-Apr-17 06:53N 36°30' W 123°12'1 2.5 360 / 31015.4 12.8 13.3
2017-Apr-17 06:30N 36°29' W 123°12'5 8.2
2017-Apr-17 05:53N 36°30' W 123°06'6 6.0 350 / 61015.5 13.4 13.4
2017-Apr-17 04:53N 36°24' W 123°06'0 0.0 110 / 31015.3 14.1 13.4
2017-Apr-17 03:53N 36°24' W 123°06'0 0.0 300 / 41015.0 14.2 13.5
2017-Apr-17 02:53N 36°24' W 123°06'1111.4 230 / 71014.3 14.5 13.4
2017-Apr-17 01:53N 36°18' W 123°18'10 9.7 210 / 81013.7 14.7 13.5
2017-Apr-17 00:53N 36°18' W 123°30'12 6.0 200 / 61013.7 14.7 14.5
2017-Apr-16 22:53N 36°06' W 123°30'1312.9 180 / 121013.6 15.8 14.4
2017-Apr-16 21:53N 35°54' W 123°24'0 0.0 190 / 211014.1 18.7 14.8
2017-Apr-16 20:53N 35°54' W 123°24'1212.9 190 / 141013.7 14.4 14.8
2017-Apr-16 19:59N 36°03' W 123°15'334.2
2017-Apr-16 19:53N 36°00' W 123°12'712.6 150 / 81013.9 14.0 14.8
2017-Apr-16 19:20N 36°06' W 123°08'4 9.6
2017-Apr-16 18:56N 36°08' W 123°04'359.7
2017-Apr-16 18:53N 36°06' W 123°00'411.0 130 / 71014.3 13.7 14.9
2017-Apr-16 18:30N 36°10' W 122°59'510.2
2017-Apr-16 18:00N 36°13' W 122°53'438.9
2017-Apr-16 17:54N 36°12' W 122°48'3 7.9 150 / 71014.8 14.1 14.8
2017-Apr-16 17:30N 36°15' W 122°48'5 9.9
2017-Apr-16 17:00N 36°17' W 122°43'866.1
2017-Apr-16 16:54N 36°12' W 122°36'617.0 180 / 171014.7 14.0 14.4
2017-Apr-16 16:31N 36°17' W 122°41'1 2.1
2017-Apr-16 16:00N 36°18' W 122°42'0 3.4
2017-Apr-16 15:54N 36°18' W 122°42'410.2 160 / 61014.3 13.8 14.3
2017-Apr-16 15:30N 36°20' W 122°38'510.5
2017-Apr-16 15:00N 36°22' W 122°32'540.0
2017-Apr-16 14:54N 36°18' W 122°30'719.3 200 / 111014.6 13.3 13.4
2017-Apr-16 14:30N 36°25' W 122°27'711.2
2017-Apr-16 13:54N 36°24' W 122°18'616.4 170 / 41014.5 12.6 12.4
2017-Apr-16 13:30N 36°30' W 122°16'3 5.9
2017-Apr-16 13:00N 36°27' W 122°17'547.2
2017-Apr-16 12:54N 36°24' W 122°12'614.3 200 / 71014.2 12.5 12.0
2017-Apr-16 12:30N 36°23' W 122°19'611.2
2017-Apr-16 12:00N 36°17' W 122°21'651.9
2017-Apr-16 11:54N 36°12' W 122°18'4 9.3 200 / 71014.0 12.7 12.3
2017-Apr-16 11:30N 36°12' W 122°22'611.0
2017-Apr-16 11:00N 36°07' W 122°24'760.4
2017-Apr-16 10:54N 36°00' W 122°24'2 5.5 170 / 51014.3 13.3 13.3
2017-Apr-16 10:30N 36°01' W 122°26'4 8.9
2017-Apr-16 10:00N 35°57' W 122°28'439.0
2017-Apr-16 09:54N 35°54' W 122°24'614.9 270 / 51014.8 13.3 13.4
2017-Apr-16 09:30N 35°58' W 122°29'2 4.3
2017-Apr-16 09:00N 35°59' W 122°31'1 8.7
2017-Apr-16 08:54N 36°00' W 122°30'3 6.5 280 / 81015.4 32.1 13.4
2017-Apr-16 08:30N 36°01' W 122°33'3 6.5
2017-Apr-16 08:00N 36°01' W 122°29'435.9
2017-Apr-16 07:54N 36°00' W 122°24'1 3.3 340 / 71015.4 13.4 13.2
2017-Apr-16 07:30N 35°60' W 122°22'2 3.9
2017-Apr-16 07:00N 35°60' W 122°20'651.4
2017-Apr-16 06:54N 35°54' W 122°18'716.9 330 / 61015.6 13.4 13.3
2017-Apr-16 06:30N 36°00' W 122°20'2 3.7
2017-Apr-16 06:00N 36°02' W 122°22'431.2
2017-Apr-16 05:54N 36°00' W 122°18'614.7 330 / 81015.8 14.5 13.3
2017-Apr-16 05:30N 36°03' W 122°24'2 4.5
2017-Apr-16 05:00N 36°05' W 122°25'214.1
2017-Apr-16 04:54N 36°06' W 122°24'411.3 330 / 111015.8 13.2 13.4
2017-Apr-16 04:30N 36°10' W 122°24'611.3
2017-Apr-16 04:00N 36°16' W 122°22'543.1
2017-Apr-16 03:54N 36°12' W 122°18'924.3 320 / 161015.6 13.0 12.3
2017-Apr-16 03:30N 36°21' W 122°20'611.4
2017-Apr-16 03:00N 36°27' W 122°18'546.1
2017-Apr-16 02:54N 36°24' W 122°12'717.6 330 / 151014.8 13.1 12.7
2017-Apr-16 02:30N 36°31' W 122°14'510.1
2017-Apr-16 01:59N 36°33' W 122°08'438.9
2017-Apr-16 01:54N 36°30' W 122°06'615.1 340 / 171014.4 13.5 13.0
2017-Apr-16 01:30N 36°35' W 122°03'4 7.3
2017-Apr-16 01:00N 36°38' W 121°60'214.0
2017-Apr-16 00:54N 36°36' W 122°00'1 3.2 320 / 121015.2 13.8 13.4
2017-Apr-16 00:30N 36°37' W 121°60'0 0.7
2017-Apr-16 00:00N 36°37' W 121°59'3 6.2
2017-Apr-15 23:30N 36°34' W 121°60'5 9.7
2017-Apr-15 23:00N 36°29' W 121°59'769.4
2017-Apr-15 22:55N 36°24' W 121°54'3 7.6 040 / 71015.8 13.7 11.5
2017-Apr-15 22:30N 36°25' W 121°58'510.0
2017-Apr-15 22:00N 36°20' W 121°57'328.9
2017-Apr-15 21:55N 36°18' W 121°54'2 4.7 010 / 101016.0 13.0 12.1
2017-Apr-15 21:30N 36°17' W 121°56'0 0.7
2017-Apr-15 21:00N 36°16' W 121°55'546.5
2017-Apr-15 20:55N 36°12' W 121°54'410.6 360 / 101016.1 14.0 13.0
2017-Apr-15 20:31N 36°16' W 121°56'1 1.1
2017-Apr-15 20:00N 36°16' W 121°56'549.6
2017-Apr-15 19:55N 36°12' W 121°54'411.1 020 / 41016.5 15.1 11.8
2017-Apr-15 19:30N 36°16' W 121°57'510.1
2017-Apr-15 19:00N 36°13' W 122°03'225.3
2017-Apr-15 18:55N 36°12' W 122°00'716.5 290 / 61017.0 13.0 12.1
2017-Apr-15 18:30N 36°11' W 122°08'5 9.7
2017-Apr-15 18:00N 36°08' W 122°13'225.5
2017-Apr-15 17:55N 36°06' W 122°12'410.7 280 / 51017.6 12.1 12.5
2017-Apr-15 17:30N 36°07' W 122°17'0 0.4
2017-Apr-15 17:00N 36°07' W 122°17'445.3
2017-Apr-15 16:55N 36°06' W 122°12'513.6 010 / 171017.8 12.1 12.1
2017-Apr-15 16:30N 36°06' W 122°19'510.1
2017-Apr-15 16:00N 36°03' W 122°24'333.4
2017-Apr-15 15:55N 36°00' W 122°24'410.4 360 / 131018.2 12.6 12.9
2017-Apr-15 15:30N 36°01' W 122°29'4 8.4
2017-Apr-15 15:00N 35°59' W 122°34'6453.0
2017-Apr-15 15:00N 35°54' W 122°30'0 0.0 350 / 131017.310.8 13.6 8.713.2
2017-Apr-15 14:55N 35°54' W 122°30'1011.1 350 / 111018.4 12.6 13.2
2017-Apr-15 14:00N 35°55' W 122°42'1 8.6
2017-Apr-15 13:55N 35°54' W 122°42'510.3 310 / 81018.9 12.8 14.4
2017-Apr-15 13:25N 35°54' W 122°48'1 1.7
2017-Apr-15 13:00N 35°53' W 122°48'772.4
2017-Apr-15 12:55N 35°48' W 122°42'615.4 020 / 221018.5 12.7 14.5
2017-Apr-15 12:30N 35°53' W 122°47'1 1.4
2017-Apr-15 12:00N 35°53' W 122°46'659.4
2017-Apr-15 11:55N 35°48' W 122°42'512.4 020 / 211018.8 12.7 14.5
2017-Apr-15 11:30N 35°52' W 122°45'1 2.4
2017-Apr-15 11:00N 35°51' W 122°45'440.6
2017-Apr-15 10:55N 35°48' W 122°42'3 6.6 360 / 221019.3 12.9 14.4
2017-Apr-15 10:30N 35°50' W 122°44'1 2.6
2017-Apr-15 10:00N 35°49' W 122°43'114.9
2017-Apr-15 09:55N 35°48' W 122°42'5 6.8 010 / 231019.6 18.2 14.3
2017-Apr-15 09:12N 35°52' W 122°45'517.1
2017-Apr-15 08:55N 35°48' W 122°42'750.4 010 / 261020.2 19.4 14.5
2017-Apr-15 08:46N 35°54' W 122°47'2 4.9
2017-Apr-15 08:18N 35°56' W 122°48'1 5.0
2017-Apr-15 08:00N 35°57' W 122°49'332.3
2017-Apr-15 07:55N 35°54' W 122°48'7 8.9 010 / 251020.7 19.8 14.5
2017-Apr-15 07:04N 36°01' W 122°52'0 4.5
2017-Apr-15 07:00N 36°01' W 122°52'440.8
2017-Apr-15 06:55N 36°00' W 122°48'511.7 020 / 231021.0 19.9 14.5
2017-Apr-15 06:30N 36°02' W 122°53'1 2.0
2017-Apr-15 06:00N 36°01' W 122°53'4319.5
2017-Apr-15 06:00N 36°00' W 122°48'0 0.0 010 / 301019.510.8 13.6 6.114.4
2017-Apr-15 05:56N 36°00' W 122°48'3 7.3 010 / 281020.7 12.7 14.5
2017-Apr-15 05:30N 36°00' W 122°52'0 0.8
2017-Apr-15 05:00N 36°00' W 122°51'334.4
2017-Apr-15 04:56N 36°00' W 122°48'2 5.4 360 / 261021.3 13.0 14.6
2017-Apr-15 04:30N 35°59' W 122°51'1 2.7
2017-Apr-15 04:00N 35°58' W 122°50'4353.2
2017-Apr-15 04:00N 35°54' W 122°48'0 0.0 360 / 301019.710.8 15.0 5.314.4
2017-Apr-15 03:56N 35°54' W 122°48'4 8.8 360 / 271021.1 13.0 14.5
2017-Apr-15 03:30N 35°58' W 122°49'3 6.4
2017-Apr-15 03:00N 35°55' W 122°46'448.2
2017-Apr-15 02:56N 35°54' W 122°42'511.7 360 / 271020.5 13.1 14.5
2017-Apr-15 02:30N 35°52' W 122°48'4 8.9
2017-Apr-15 02:00N 35°50' W 122°53'457.5
2017-Apr-15 01:56N 35°48' W 122°48'717.6 260 / 91021.1 13.2 14.6
2017-Apr-15 01:30N 35°48' W 122°57'4 8.8
2017-Apr-15 01:00N 35°46' W 123°02'451.4
2017-Apr-15 00:56N 35°42' W 123°00'612.1 260 / 81021.7 13.0 14.2
2017-Apr-15 00:26N 35°43' W 123°07'11 7.6
2017-Apr-14 22:56N 35°36' W 123°18'239.0 010 / 221023.3 13.0 14.3
2017-Apr-14 22:52N 35°37' W 123°20'4 6.7
2017-Apr-14 22:18N 35°35' W 123°17'615.8
2017-Apr-14 21:56N 35°30' W 123°12'220.3 010 / 241023.2 13.2 14.4
2017-Apr-14 21:50N 35°32' W 123°13'3 8.9
2017-Apr-14 21:29N 35°30' W 123°10'4 8.8
2017-Apr-14 21:00N 35°26' W 123°07'332.2
2017-Apr-14 20:56N 35°24' W 123°06'3 6.2 020 / 251023.2 13.1 14.4
2017-Apr-14 20:27N 35°23' W 123°03'713.5
2017-Apr-14 19:56N 35°24' W 122°54'1111.5 360 / 251023.5 13.3 14.4
2017-Apr-14 18:56N 35°30' W 122°42'1111.5 360 / 261023.6 13.3 14.2
2017-Apr-14 17:56N 35°36' W 122°30'2 4.7 360 / 241023.5 13.0 13.9
2017-Apr-14 17:34N 35°38' W 122°30'110.2
2017-Apr-14 17:30N 35°38' W 122°30'1018.7
2017-Apr-14 17:00N 35°36' W 122°18'7205.0 360 / 241021.610.8 13.8 5.713.5
2017-Apr-14 16:58N 35°41' W 122°23'7188.6
2017-Apr-14 16:56N 35°36' W 122°18'717.2 350 / 281022.6 12.9 13.5
2017-Apr-14 16:30N 35°43' W 122°18'510.8
2017-Apr-14 16:00N 35°46' W 122°12'782.3
2017-Apr-14 15:56N 35°42' W 122°06'715.7 360 / 271022.3 12.7 13.4
2017-Apr-14 15:30N 35°49' W 122°07'510.8
2017-Apr-14 15:00N 35°51' W 122°01'3266.0
2017-Apr-14 15:00N 35°48' W 122°00'0 0.0 360 / 301020.710.8 12.2 6.613.3
2017-Apr-14 14:56N 35°48' W 122°00'716.5 350 / 281021.8 12.2 13.3
2017-Apr-14 14:30N 35°54' W 121°55'610.2
2017-Apr-14 13:56N 35°54' W 121°48'4 9.4 360 / 301020.4 11.8 13.2
2017-Apr-14 13:30N 35°56' W 121°52'1 1.6
2017-Apr-14 13:00N 35°56' W 121°51'340.3
2017-Apr-14 12:56N 35°54' W 121°48'2 4.6 350 / 321020.1 11.8 13.3
2017-Apr-14 12:30N 35°55' W 121°50'1 2.7
2017-Apr-14 12:00N 35°55' W 121°48'5397.4
2017-Apr-14 12:00N 35°54' W 121°42'572.9 350 / 301018.8 5.4 10.6 8.413.6
2017-Apr-14 11:56N 35°54' W 121°48'1 3.2 350 / 291020.1 11.9 13.5
2017-Apr-14 11:30N 35°55' W 121°47'1 1.5
2017-Apr-14 11:00N 35°55' W 121°46'347.4
2017-Apr-14 10:57N 35°54' W 121°42'2 4.9 350 / 311019.9 12.3 13.7
2017-Apr-14 10:30N 35°54' W 121°45'2 3.6
2017-Apr-14 10:00N 35°55' W 121°47'463.3
2017-Apr-14 09:57N 35°54' W 121°42'613.1 010 / 211020.8 12.3 13.7
2017-Apr-14 09:30N 35°55' W 121°49'2 3.4
2017-Apr-14 09:00N 35°56' W 121°51'348.6
2017-Apr-14 08:57N 35°54' W 121°48'3 6.8 010 / 231021.5 12.4 13.7
2017-Apr-14 08:30N 35°56' W 121°51'1 1.3
2017-Apr-14 08:00N 35°56' W 121°50'345.1
2017-Apr-14 07:57N 35°54' W 121°48'3 6.5 350 / 271021.2 12.6 13.7
2017-Apr-14 07:30N 35°57' W 121°50'1 1.2
2017-Apr-14 07:00N 35°57' W 121°49'345.1
2017-Apr-14 06:57N 35°54' W 121°48'3 6.7 350 / 271021.0 12.7 13.6
2017-Apr-14 06:30N 35°57' W 121°47'4 7.0
2017-Apr-14 06:00N 35°57' W 121°42'340.5
2017-Apr-14 05:57N 35°54' W 121°42'3 5.7 350 / 261020.7 12.8 13.4
2017-Apr-14 05:30N 35°57' W 121°41'1 2.3
2017-Apr-14 05:00N 35°57' W 121°43'363.5
2017-Apr-14 04:57N 35°54' W 121°42'4 8.7 350 / 211021.4 13.0 13.6
2017-Apr-14 04:28N 35°58' W 121°44'2 4.0
2017-Apr-14 04:00N 35°59' W 121°46'6100.7
2017-Apr-14 03:57N 35°54' W 121°42'817.4 350 / 241021.3 25.4 13.8
2017-Apr-14 03:30N 35°60' W 121°48'3 5.2
2017-Apr-14 03:00N 35°58' W 121°51'467.9
2017-Apr-14 02:57N 35°54' W 121°48'3 6.1 350 / 181020.3 13.1 13.9
2017-Apr-14 02:30N 35°56' W 121°50'510.1
2017-Apr-14 02:00N 35°59' W 121°44'585.1
2017-Apr-14 01:57N 35°54' W 121°42'716.8 330 / 271019.2 13.5 13.3
2017-Apr-14 01:30N 36°01' W 121°40'1 3.0
2017-Apr-14 01:00N 36°02' W 121°38'239.1
2017-Apr-14 00:57N 36°00' W 121°36'2 5.0 330 / 211019.3 13.5 13.8
2017-Apr-14 00:30N 36°02' W 121°37'2 4.3
2017-Apr-14 00:00N 35°60' W 121°37'510.0
2017-Apr-13 23:29N 35°56' W 121°33'5 9.7
2017-Apr-13 22:58N 35°52' W 121°29'6196.1
2017-Apr-13 22:57N 35°48' W 121°24'8 7.7 350 / 181018.7 14.3 14.9
2017-Apr-13 21:57N 35°42' W 121°18'10 9.7 340 / 181019.0 14.8 14.8
2017-Apr-13 20:57N 35°42' W 121°30'1111.4 250 / 101019.3 14.7 14.9
2017-Apr-13 19:57N 35°36' W 121°42'1111.5 250 / 101019.1 14.6 14.5
2017-Apr-13 18:57N 35°30' W 121°54'8 7.7 240 / 81018.7 14.3 14.2
2017-Apr-13 17:57N 35°24' W 122°00'417.4 270 / 81018.4 14.9 14.3
2017-Apr-13 17:41N 35°26' W 122°05'0 1.2
2017-Apr-13 17:28N 35°26' W 122°05'4 8.3
2017-Apr-13 16:58N 35°24' W 122°00'1111.5 250 / 101017.8 14.1 14.2
2017-Apr-13 15:58N 35°18' W 122°12'   260 / 71017.0 14.9 14.3

Dump ship's entire track history